Details for Ryanair at ESGG




Go Back


Latest METAR
Local Time

ESGG 232350Z 08007KT 9999 FEW016 M05/M08 Q1032 R03/19//95

24/02/2018, 01:11:10

Description
Results
Ryanair Logo
Number of Pilots based at ESGG
0 Pilots Based here
Number of Ryanair Flights Departed from ESGG
0 Flights Departed
Number of Ryanair Flights Arrived at ESGG
0 Flights Arrived
Number of Ryanair Schedules Departing from ESGG
22 Schedules
Number of Ryanair Schedules Arriving at ESGG
22 Schedules
Number of Ryanair Schedules Departing from ESGG availible today
2 Schedules Today
Number of Ryanair Schedules Arriving at ESGG availible today
2 Schedules Today
Average Landing Rate at ESGG
-350 fpm
Ryanair Average Landing Rate at ESGG
0 fpm
Total Fuel Purchased at ESGG by Ryanair
0.00 kgs / 0.00 lbs

Pilots Based at ESGG


Pilot ID
Pilot Name
Pilot Rank
No. of Flights
No. of Flying Hours
There are no pilots assigned to this hub!   Will you be the first?
Content